createdAt,value
2022-12-28T00:01:52.701Z,87.25
2022-12-28T00:04:20.537Z,87.42
2022-12-28T00:06:50.563Z,87.55
2022-12-28T00:09:18.846Z,87.10
2022-12-28T00:11:48.295Z,87.21
2022-12-28T00:14:16.104Z,87.30
2022-12-28T00:16:44.309Z,87.32
2022-12-28T00:19:13.873Z,87.06
2022-12-28T00:21:41.710Z,87.28
2022-12-28T00:24:10.204Z,87.16
2022-12-28T00:26:38.023Z,87.06
2022-12-28T00:29:07.237Z,86.94
2022-12-28T00:31:35.376Z,87.61
2022-12-28T00:34:03.299Z,87.46
2022-12-28T00:37:11.289Z,87.15
2022-12-28T00:39:20.212Z,87.40
2022-12-28T00:41:48.495Z,87.33
2022-12-28T00:44:17.725Z,86.85
2022-12-28T00:46:45.687Z,87.40
2022-12-28T00:49:13.709Z,87.36
2022-12-28T00:51:41.611Z,87.00
2022-12-28T00:54:09.491Z,87.33
2022-12-28T00:56:37.271Z,87.36
2022-12-28T00:59:05.082Z,87.31
2022-12-28T01:01:34.464Z,86.96
2022-12-28T01:04:02.272Z,87.09
2022-12-28T01:06:30.592Z,87.17
2022-12-28T01:08:58.497Z,86.93
2022-12-28T01:11:28.100Z,86.91
2022-12-28T01:13:58.156Z,87.01
2022-12-28T01:16:27.824Z,86.96
2022-12-28T01:18:58.987Z,86.86
2022-12-28T01:21:29.259Z,87.19
2022-12-28T01:23:58.825Z,87.09
2022-12-28T01:26:27.699Z,87.23
2022-12-28T01:28:55.580Z,87.21
2022-12-28T01:31:23.431Z,87.00
2022-12-28T01:33:51.176Z,87.26
2022-12-28T01:36:22.464Z,87.11
2022-12-28T01:38:54.053Z,87.05
2022-12-28T01:41:22.565Z,87.26
2022-12-28T01:44:23.870Z,87.18
2022-12-28T01:46:54.266Z,87.21
2022-12-28T01:49:28.683Z,87.40
2022-12-28T01:52:03.441Z,86.94
2022-12-28T01:54:35.114Z,87.06
2022-12-28T01:57:04.129Z,86.88
2022-12-28T01:59:34.774Z,86.86
2022-12-28T02:02:02.799Z,87.11
2022-12-28T02:04:30.894Z,87.06
2022-12-28T02:07:00.046Z,86.75
2022-12-28T02:09:34.307Z,87.10
2022-12-28T02:12:02.278Z,87.00
2022-12-28T02:14:31.441Z,87.28
2022-12-28T02:16:59.541Z,86.91
2022-12-28T02:19:36.577Z,86.62
2022-12-28T02:22:33.730Z,87.19
2022-12-28T02:25:16.039Z,87.08
2022-12-28T02:27:58.485Z,87.17
2022-12-28T02:30:27.718Z,86.61
2022-12-28T02:33:01.805Z,86.96
2022-12-28T02:35:39.589Z,86.74
2022-12-28T02:38:15.760Z,86.75
2022-12-28T02:40:46.962Z,86.97
2022-12-28T02:43:15.428Z,86.75
2022-12-28T02:46:03.436Z,86.65
2022-12-28T02:48:58.169Z,86.97
2022-12-28T02:51:54.778Z,87.05
2022-12-28T02:54:50.524Z,86.80
2022-12-28T02:57:35.756Z,86.68
2022-12-28T03:00:07.950Z,86.65
2022-12-28T03:02:51.059Z,86.59
2022-12-28T03:05:46.607Z,86.78
2022-12-28T03:08:21.530Z,86.62
2022-12-28T03:10:57.305Z,86.64
2022-12-28T03:13:47.049Z,86.73
2022-12-28T03:16:21.542Z,86.99
2022-12-28T03:19:13.507Z,86.75
2022-12-28T03:22:00.923Z,86.74
2022-12-28T03:24:50.031Z,86.65
2022-12-28T03:27:37.388Z,86.41
2022-12-28T03:30:26.991Z,86.75
2022-12-28T03:32:56.000Z,86.91
2022-12-28T03:35:40.138Z,86.61
2022-12-28T03:38:12.268Z,86.61
2022-12-28T03:40:48.607Z,86.55
2022-12-28T03:43:39.707Z,86.57
2022-12-28T03:46:14.528Z,86.72
2022-12-28T03:48:44.116Z,86.66
2022-12-28T03:51:17.232Z,86.37
2022-12-28T03:53:47.719Z,86.75
2022-12-28T03:56:17.071Z,86.62
2022-12-28T03:58:45.053Z,86.58
2022-12-28T04:01:13.784Z,86.71
2022-12-28T04:03:41.939Z,86.54
2022-12-28T04:06:12.901Z,86.72
2022-12-28T04:08:42.064Z,86.65
2022-12-28T04:11:10.643Z,86.38
2022-12-28T04:13:38.433Z,86.49
2022-12-28T04:16:10.973Z,86.38
2022-12-28T04:18:39.399Z,86.44
2022-12-28T04:21:07.560Z,86.60
2022-12-28T04:23:35.333Z,86.49
2022-12-28T04:26:07.076Z,86.50
2022-12-28T04:28:35.652Z,86.51
2022-12-28T04:31:04.737Z,86.62
2022-12-28T04:33:34.378Z,86.54
2022-12-28T04:36:06.751Z,86.46
2022-12-28T04:38:34.727Z,86.39
2022-12-28T04:41:04.884Z,86.42
2022-12-28T04:43:34.022Z,86.63
2022-12-28T04:46:03.778Z,86.42
2022-12-28T04:48:31.821Z,86.52
2022-12-28T04:51:00.185Z,86.28
2022-12-28T04:53:28.102Z,86.50
2022-12-28T04:55:58.407Z,86.42
2022-12-28T04:58:27.570Z,86.51
2022-12-28T05:00:55.525Z,86.58
2022-12-28T05:03:23.397Z,86.55
2022-12-28T05:05:51.525Z,86.51
2022-12-28T05:08:19.328Z,86.44
2022-12-28T05:10:47.183Z,86.41
2022-12-28T05:13:15.077Z,86.41
2022-12-28T05:15:44.312Z,86.29
2022-12-28T05:18:12.065Z,86.36
2022-12-28T05:20:39.850Z,86.76
2022-12-28T05:23:07.567Z,86.37
2022-12-28T05:25:35.401Z,86.30
2022-12-28T05:28:03.309Z,86.47
2022-12-28T05:30:31.151Z,86.50
2022-12-28T05:33:00.263Z,86.39
2022-12-28T05:35:28.176Z,86.34
2022-12-28T05:37:55.937Z,86.23
2022-12-28T05:40:23.705Z,86.25
2022-12-28T05:42:51.884Z,86.37
2022-12-28T05:45:20.046Z,86.39
2022-12-28T05:47:48.078Z,86.50
2022-12-28T05:50:17.608Z,86.17
2022-12-28T05:52:45.721Z,86.19
2022-12-28T05:55:13.628Z,86.31
2022-12-28T05:57:41.433Z,86.23
2022-12-28T06:00:10.227Z,86.23
2022-12-28T06:02:38.339Z,86.17
2022-12-28T06:05:07.259Z,86.32
2022-12-28T06:07:36.351Z,86.23
2022-12-28T06:10:04.417Z,86.10
2022-12-28T06:12:32.331Z,86.25
2022-12-28T06:15:00.284Z,86.17
2022-12-28T06:17:28.218Z,86.39
2022-12-28T06:19:55.961Z,86.17
2022-12-28T06:22:23.775Z,86.16
2022-12-28T06:24:52.971Z,86.23
2022-12-28T06:27:20.869Z,86.34
2022-12-28T06:29:48.609Z,86.21
2022-12-28T06:32:16.315Z,86.12
2022-12-28T06:34:44.444Z,86.08
2022-12-28T06:37:12.510Z,86.23
2022-12-28T06:39:40.229Z,86.11
2022-12-28T06:42:09.437Z,86.27
2022-12-28T06:44:44.171Z,86.27
2022-12-28T06:47:12.690Z,86.05
2022-12-28T06:49:40.431Z,85.82
2022-12-28T06:52:08.383Z,86.16
2022-12-28T06:54:36.179Z,85.86
2022-12-28T06:57:04.097Z,86.10
2022-12-28T06:59:33.274Z,86.34
2022-12-28T07:02:01.338Z,86.19
2022-12-28T07:04:29.399Z,86.21
2022-12-28T07:06:57.210Z,86.28
2022-12-28T07:09:25.063Z,86.21
2022-12-28T07:11:52.911Z,86.32
2022-12-28T07:14:20.874Z,86.08
2022-12-28T07:16:50.317Z,85.90
2022-12-28T07:19:18.114Z,86.29
2022-12-28T07:21:45.930Z,86.11
2022-12-28T07:24:13.806Z,85.92
2022-12-28T07:26:41.622Z,86.12
2022-12-28T07:29:11.155Z,86.22
2022-12-28T07:31:45.482Z,85.98
2022-12-28T07:34:16.112Z,86.40
2022-12-28T07:36:44.388Z,86.05
2022-12-28T07:39:12.292Z,86.18
2022-12-28T07:41:40.108Z,85.98
2022-12-28T07:44:07.947Z,86.25
2022-12-28T07:46:38.688Z,86.13
2022-12-28T07:49:07.074Z,86.04
2022-12-28T07:51:37.903Z,86.40
2022-12-28T07:54:07.067Z,86.40
2022-12-28T07:59:03.779Z,86.11
2022-12-28T08:01:34.228Z,86.27
2022-12-28T08:04:04.461Z,86.29
2022-12-28T08:06:35.089Z,86.26
2022-12-28T08:09:05.739Z,86.29
2022-12-28T08:11:35.356Z,85.92
2022-12-28T08:14:03.681Z,85.82
2022-12-28T08:16:33.556Z,86.15
2022-12-28T08:19:01.365Z,85.88
2022-12-28T08:21:31.719Z,86.30
2022-12-28T08:23:59.971Z,85.98
2022-12-28T08:26:31.974Z,86.01
2022-12-28T08:29:01.935Z,85.73
2022-12-28T08:31:33.258Z,85.99
2022-12-28T08:34:03.347Z,86.24
2022-12-28T08:36:31.839Z,86.30
2022-12-28T08:39:00.706Z,86.19
2022-12-28T08:41:31.120Z,86.13
2022-12-28T08:43:59.459Z,86.32
2022-12-28T08:46:29.192Z,86.16
2022-12-28T08:48:58.971Z,86.10
2022-12-28T08:51:31.961Z,85.83
2022-12-28T08:54:00.467Z,86.16
2022-12-28T08:56:31.753Z,86.12
2022-12-28T08:58:59.843Z,86.35
2022-12-28T09:01:29.633Z,86.14
2022-12-28T09:04:00.215Z,85.88
2022-12-28T09:06:29.237Z,86.20
2022-12-28T09:09:07.195Z,85.91
2022-12-28T09:11:37.695Z,85.95
2022-12-28T09:14:07.717Z,85.78
2022-12-28T09:16:36.280Z,86.05
2022-12-28T09:19:06.623Z,86.21
2022-12-28T09:21:36.037Z,86.26
2022-12-28T09:24:04.458Z,85.76
2022-12-28T09:26:35.104Z,86.22
2022-12-28T09:29:07.009Z,86.20
2022-12-28T09:31:37.124Z,85.95
2022-12-28T09:36:53.088Z,86.12
2022-12-28T09:39:24.489Z,86.24
2022-12-28T09:41:57.457Z,86.12
2022-12-28T09:44:41.166Z,85.98
2022-12-28T09:47:18.584Z,86.18
2022-12-28T09:49:56.413Z,86.08
2022-12-28T09:52:29.148Z,86.32
2022-12-28T09:55:01.424Z,86.01
2022-12-28T09:57:38.794Z,86.17
2022-12-28T10:00:18.541Z,86.26
2022-12-28T10:02:50.816Z,85.97
2022-12-28T10:05:20.680Z,86.38
2022-12-28T10:07:48.791Z,86.25
2022-12-28T10:10:19.881Z,86.07
2022-12-28T10:12:48.494Z,86.25
2022-12-28T10:15:27.048Z,86.12
2022-12-28T10:17:55.462Z,86.23
2022-12-28T10:20:24.055Z,86.23
2022-12-28T10:22:54.308Z,86.30
2022-12-28T10:25:26.702Z,86.04
2022-12-28T10:27:56.067Z,86.14
2022-12-28T10:30:27.990Z,86.23
2022-12-28T10:33:02.455Z,86.25
2022-12-28T10:35:34.430Z,86.17
2022-12-28T10:38:05.230Z,86.16
2022-12-28T10:40:36.452Z,86.19
2022-12-28T10:43:10.860Z,86.15
2022-12-28T10:45:47.681Z,86.34
2022-12-28T10:48:19.161Z,86.11
2022-12-28T10:50:53.969Z,86.16
2022-12-28T10:53:28.063Z,86.12
2022-12-28T10:56:07.345Z,86.28
2022-12-28T10:58:35.755Z,86.21
2022-12-28T11:01:08.080Z,86.35
2022-12-28T11:03:37.932Z,86.17
2022-12-28T11:06:10.708Z,86.10
2022-12-28T11:08:39.742Z,86.45
2022-12-28T11:11:08.287Z,86.13
2022-12-28T11:13:36.525Z,86.04
2022-12-28T11:16:08.080Z,86.29
2022-12-28T11:18:38.083Z,86.27
2022-12-28T11:21:06.430Z,86.27
2022-12-28T11:23:34.962Z,86.21
2022-12-28T11:26:02.717Z,86.22
2022-12-28T11:28:30.543Z,86.19
2022-12-28T11:30:59.787Z,86.33
2022-12-28T11:33:36.961Z,86.31
2022-12-28T11:36:10.095Z,86.25
2022-12-28T11:38:39.676Z,86.30
2022-12-28T11:41:08.096Z,86.21
2022-12-28T11:43:51.398Z,86.29
2022-12-28T11:46:40.358Z,86.38
2022-12-28T11:49:31.648Z,86.11
2022-12-28T11:52:44.389Z,86.33
2022-12-28T11:55:37.275Z,86.13
2022-12-28T11:58:51.043Z,86.14
2022-12-28T12:01:47.678Z,86.42
2022-12-28T12:04:41.271Z,86.34
2022-12-28T12:07:38.881Z,86.14
2022-12-28T12:10:21.587Z,86.08
2022-12-28T12:12:53.518Z,86.45
2022-12-28T12:15:26.410Z,86.32
2022-12-28T12:18:00.883Z,86.49
2022-12-28T12:20:47.672Z,86.36
2022-12-28T12:23:27.298Z,86.36
2022-12-28T12:25:59.178Z,86.33
2022-12-28T12:28:37.285Z,86.37
2022-12-28T12:31:10.044Z,86.26
2022-12-28T12:33:43.902Z,86.49
2022-12-28T12:36:39.870Z,86.80
2022-12-28T12:39:28.723Z,86.50
2022-12-28T12:42:06.571Z,86.20
2022-12-28T12:44:41.115Z,86.25
2022-12-28T12:47:54.658Z,86.41
2022-12-28T12:50:36.256Z,86.44
2022-12-28T12:53:22.469Z,86.54
2022-12-28T12:56:03.690Z,86.39
2022-12-28T12:58:41.478Z,86.47
2022-12-28T13:01:30.738Z,86.20
2022-12-28T13:04:07.087Z,86.21
2022-12-28T13:06:36.108Z,86.57
2022-12-28T13:09:07.608Z,86.19
2022-12-28T13:11:38.368Z,86.16
2022-12-28T13:14:06.923Z,86.41
2022-12-28T13:16:34.808Z,86.58
2022-12-28T13:19:04.756Z,86.34
2022-12-28T13:21:42.744Z,86.32
2022-12-28T13:24:21.798Z,86.22
2022-12-28T13:26:50.213Z,86.25
2022-12-28T13:29:21.123Z,86.46
2022-12-28T13:31:50.610Z,86.50
2022-12-28T13:34:22.950Z,86.42
2022-12-28T13:36:53.772Z,86.37
2022-12-28T13:39:23.988Z,86.36
2022-12-28T13:41:53.713Z,86.33
2022-12-28T13:44:37.584Z,86.15
2022-12-28T13:47:10.574Z,86.37
2022-12-28T13:50:01.505Z,86.27
2022-12-28T13:52:33.233Z,86.23
2022-12-28T13:55:05.806Z,86.41
2022-12-28T13:57:46.647Z,86.47
2022-12-28T14:00:17.927Z,86.16
2022-12-28T14:02:46.300Z,86.30
2022-12-28T14:05:21.686Z,86.09
2022-12-28T14:07:51.202Z,86.28
2022-12-28T14:10:20.846Z,86.07
2022-12-28T14:12:49.665Z,86.51
2022-12-28T14:15:18.865Z,86.41
2022-12-28T14:17:48.599Z,86.43
2022-12-28T14:20:17.941Z,86.33
2022-12-28T14:22:46.362Z,86.21
2022-12-28T14:25:16.128Z,86.25
2022-12-28T14:27:46.982Z,86.21
2022-12-28T14:30:26.232Z,86.58
2022-12-28T14:32:55.438Z,86.28
2022-12-28T14:35:27.267Z,86.23
2022-12-28T14:37:57.502Z,86.18
2022-12-28T14:40:31.290Z,86.39
2022-12-28T14:43:00.406Z,86.46
2022-12-28T14:46:07.507Z,86.34
2022-12-28T14:48:37.540Z,86.41
2022-12-28T14:51:25.499Z,86.25
2022-12-28T14:54:18.523Z,86.29
2022-12-28T14:56:49.745Z,86.48
2022-12-28T14:59:21.395Z,86.39
2022-12-28T15:01:49.800Z,86.32
2022-12-28T15:04:37.703Z,86.46
2022-12-28T15:07:09.331Z,86.48
2022-12-28T15:09:37.553Z,86.27
2022-12-28T15:12:10.521Z,86.50
2022-12-28T15:14:38.428Z,86.29
2022-12-28T15:17:06.533Z,86.52
2022-12-28T15:19:34.429Z,86.32
2022-12-28T15:22:02.298Z,86.31
2022-12-28T15:24:34.242Z,86.49
2022-12-28T15:27:02.878Z,86.51
2022-12-28T15:32:18.500Z,86.32
2022-12-28T15:34:46.271Z,86.36
2022-12-28T15:37:14.079Z,86.28
2022-12-28T15:39:43.240Z,86.26
2022-12-28T15:42:11.180Z,86.42
2022-12-28T15:44:38.985Z,86.28
2022-12-28T15:47:07.234Z,86.33
2022-12-28T15:49:35.292Z,86.33
2022-12-28T15:52:03.143Z,86.32
2022-12-28T15:54:30.885Z,86.54
2022-12-28T15:56:59.980Z,86.29
2022-12-28T15:59:28.160Z,86.21
2022-12-28T16:01:56.087Z,86.27
2022-12-28T16:04:24.137Z,86.33
2022-12-28T16:06:51.926Z,86.29
2022-12-28T16:09:19.838Z,86.41
2022-12-28T16:11:53.084Z,86.48
2022-12-28T16:14:24.264Z,86.29
2022-12-28T16:16:52.496Z,86.52
2022-12-28T16:19:20.565Z,86.25
2022-12-28T16:21:51.042Z,86.54
2022-12-28T16:24:19.361Z,86.35
2022-12-28T16:26:47.407Z,86.60
2022-12-28T16:29:15.619Z,86.52
2022-12-28T16:31:44.880Z,86.35
2022-12-28T16:34:14.701Z,86.52
2022-12-28T16:36:43.121Z,86.72
2022-12-28T16:39:14.530Z,86.11
2022-12-28T16:41:43.007Z,86.59
2022-12-28T16:44:14.668Z,86.42
2022-12-28T16:46:44.125Z,86.49
2022-12-28T16:49:12.050Z,86.48
2022-12-28T16:51:41.226Z,86.58
2022-12-28T16:54:09.506Z,86.46
2022-12-28T16:56:37.287Z,86.46
2022-12-28T16:59:05.076Z,86.57
2022-12-28T17:01:33.278Z,86.68
2022-12-28T17:04:04.483Z,86.37
2022-12-28T17:06:32.469Z,86.54
2022-12-28T17:09:01.901Z,86.60
2022-12-28T17:11:29.992Z,86.34
2022-12-28T17:14:01.709Z,86.74
2022-12-28T17:16:29.623Z,86.39
2022-12-28T17:18:57.385Z,86.34
2022-12-28T17:21:26.601Z,86.65
2022-12-28T17:23:55.818Z,86.37
2022-12-28T17:26:23.696Z,86.65
2022-12-28T17:28:51.838Z,86.59
2022-12-28T17:31:22.363Z,86.40
2022-12-28T17:33:53.773Z,86.31
2022-12-28T17:36:22.551Z,86.50
2022-12-28T17:38:51.983Z,86.63
2022-12-28T17:41:22.428Z,86.61
2022-12-28T17:43:51.786Z,86.72
2022-12-28T17:46:19.937Z,86.37
2022-12-28T17:48:48.035Z,86.77
2022-12-28T17:51:15.979Z,86.73
2022-12-28T17:53:43.862Z,86.75
2022-12-28T17:56:14.746Z,86.71
2022-12-28T17:58:44.409Z,86.64
2022-12-28T18:01:13.743Z,86.40
2022-12-28T18:03:41.935Z,86.45
2022-12-28T18:06:09.823Z,86.52
2022-12-28T18:08:37.590Z,86.28
2022-12-28T18:11:08.576Z,86.52
2022-12-28T18:13:37.833Z,86.82
2022-12-28T18:16:07.477Z,86.57
2022-12-28T18:18:35.290Z,86.78
2022-12-28T18:21:05.588Z,86.73
2022-12-28T18:23:34.422Z,86.79
2022-12-28T18:26:03.279Z,86.61
2022-12-28T18:28:31.235Z,86.54
2022-12-28T18:31:02.424Z,86.62
2022-12-28T18:33:30.875Z,86.88
2022-12-28T18:35:58.923Z,86.94
2022-12-28T18:38:26.793Z,86.39
2022-12-28T18:40:57.216Z,86.93
2022-12-28T18:43:25.849Z,86.77
2022-12-28T18:45:54.054Z,86.96
2022-12-28T18:48:23.416Z,86.65
2022-12-28T18:50:55.944Z,86.54
2022-12-28T18:53:24.697Z,86.67
2022-12-28T18:55:58.066Z,86.87
2022-12-28T18:58:25.939Z,86.68
2022-12-28T19:00:53.720Z,86.83
2022-12-28T19:03:23.224Z,86.90
2022-12-28T19:06:02.307Z,86.94
2022-12-28T19:08:31.304Z,86.46
2022-12-28T19:10:59.107Z,86.54
2022-12-28T19:13:27.071Z,86.53
2022-12-28T19:15:54.885Z,86.92
2022-12-28T19:18:24.266Z,86.61
2022-12-28T19:20:56.756Z,86.91
2022-12-28T19:23:24.547Z,86.48
2022-12-28T19:25:54.601Z,86.63
2022-12-28T19:28:22.410Z,86.72
2022-12-28T19:30:51.561Z,86.64
2022-12-28T19:33:19.515Z,86.55
2022-12-28T19:35:48.640Z,86.84
2022-12-28T19:38:16.423Z,87.05
2022-12-28T19:40:44.164Z,87.13
2022-12-28T19:43:12.947Z,86.56
2022-12-28T19:45:40.786Z,87.04
2022-12-28T19:48:08.919Z,86.64
2022-12-28T19:50:36.899Z,87.09
2022-12-28T19:53:06.124Z,86.66
2022-12-28T19:55:34.664Z,86.85
2022-12-28T19:58:02.508Z,86.63
2022-12-28T20:00:30.345Z,87.08
2022-12-28T20:02:58.462Z,86.91
2022-12-28T20:05:27.167Z,86.67
2022-12-28T20:07:54.920Z,86.64
2022-12-28T20:10:24.464Z,86.60
2022-12-28T20:12:52.238Z,86.72
2022-12-28T20:15:20.008Z,87.14
2022-12-28T20:17:47.756Z,86.92
2022-12-28T20:20:17.334Z,87.12
2022-12-28T20:22:46.650Z,86.88
2022-12-28T20:25:14.596Z,86.73
2022-12-28T20:27:43.720Z,87.06
2022-12-28T20:30:12.480Z,86.77
2022-12-28T20:32:44.711Z,86.86
2022-12-28T20:35:13.223Z,86.99
2022-12-28T20:37:41.030Z,86.75
2022-12-28T20:40:09.767Z,87.18
2022-12-28T20:42:54.937Z,87.05
2022-12-28T20:45:24.496Z,86.82
2022-12-28T20:47:53.891Z,86.66
2022-12-28T20:50:21.672Z,86.87
2022-12-28T20:52:49.464Z,86.76
2022-12-28T20:55:17.311Z,87.18
2022-12-28T20:57:45.383Z,86.76
2022-12-28T21:00:14.436Z,87.09
2022-12-28T21:02:43.575Z,87.18
2022-12-28T21:05:11.845Z,86.96
2022-12-28T21:07:39.679Z,87.01
2022-12-28T21:10:09.548Z,87.01
2022-12-28T21:12:37.313Z,86.75
2022-12-28T21:15:05.786Z,86.77
2022-12-28T21:17:35.550Z,87.40
2022-12-28T21:20:05.648Z,87.00
2022-12-28T21:22:33.468Z,86.88
2022-12-28T21:25:01.304Z,87.22
2022-12-28T21:27:29.671Z,87.09
2022-12-28T21:29:57.458Z,87.44
2022-12-28T21:32:25.189Z,86.92
2022-12-28T21:34:53.093Z,86.71
2022-12-28T21:37:37.099Z,87.19
2022-12-28T21:40:08.897Z,87.19
2022-12-28T21:42:37.443Z,86.96
2022-12-28T21:45:06.118Z,87.32
2022-12-28T21:47:35.532Z,87.11
2022-12-28T21:50:04.178Z,87.07
2022-12-28T21:52:34.581Z,86.95
2022-12-28T21:55:23.253Z,87.35
2022-12-28T21:57:51.692Z,86.76
2022-12-28T22:00:38.023Z,87.12
2022-12-28T22:03:21.150Z,87.24
2022-12-28T22:06:06.524Z,87.44
2022-12-28T22:08:53.508Z,87.05
2022-12-28T22:11:38.858Z,87.16
2022-12-28T22:14:07.793Z,87.10
2022-12-28T22:16:36.873Z,86.93
2022-12-28T22:19:05.452Z,87.08
2022-12-28T22:21:33.296Z,87.31
2022-12-28T22:24:02.519Z,87.15
2022-12-28T22:26:30.326Z,87.17
2022-12-28T22:28:58.013Z,87.17
2022-12-28T22:31:25.769Z,87.22
2022-12-28T22:33:57.569Z,87.60
2022-12-28T22:36:27.186Z,87.22
2022-12-28T22:38:55.434Z,86.82
2022-12-28T22:41:24.745Z,87.20
2022-12-28T22:43:53.505Z,87.32
2022-12-28T22:46:22.300Z,87.25
2022-12-28T22:48:50.342Z,87.15
2022-12-28T22:51:18.199Z,86.79
2022-12-28T22:53:46.082Z,87.34
2022-12-28T22:56:19.648Z,87.16
2022-12-28T22:58:49.294Z,87.31
2022-12-28T23:01:19.491Z,87.29
2022-12-28T23:03:48.922Z,87.11
2022-12-28T23:06:19.493Z,87.19
2022-12-28T23:08:49.460Z,87.22
2022-12-28T23:11:37.508Z,87.23
2022-12-28T23:14:26.282Z,87.35
2022-12-28T23:16:54.951Z,87.46
2022-12-28T23:19:40.752Z,86.97
2022-12-28T23:22:26.643Z,87.39
2022-12-28T23:25:11.650Z,87.39
2022-12-28T23:30:29.552Z,87.48
2022-12-28T23:32:57.482Z,87.29
2022-12-28T23:35:26.950Z,87.40
2022-12-28T23:37:56.119Z,87.25
2022-12-28T23:40:24.705Z,87.29
2022-12-28T23:42:54.066Z,87.45
2022-12-28T23:45:23.068Z,87.49
2022-12-28T23:47:54.317Z,87.13
2022-12-28T23:50:22.162Z,87.20
2022-12-28T23:52:50.179Z,87.23
2022-12-28T23:55:18.521Z,87.32
2022-12-28T23:57:46.278Z,87.10
